sensor_id;sensor_type;location;lat;lon;timestamp;P1;durP1;ratioP1;P2;durP2;ratioP2
53835;SDS011;39737;43.334;21.936;2023-06-26T00:00:41;3.28;;;2.45;;
53835;SDS011;39737;43.334;21.936;2023-06-26T00:03:39;6.22;;;3.50;;
53835;SDS011;39737;43.334;21.936;2023-06-26T00:06:31;5.05;;;2.97;;
53835;SDS011;39737;43.334;21.936;2023-06-26T00:09:36;11.35;;;3.60;;
53835;SDS011;39737;43.334;21.936;2023-06-26T00:12:23;5.57;;;2.92;;
53835;SDS011;39737;43.334;21.936;2023-06-26T00:15:09;5.03;;;3.35;;
53835;SDS011;39737;43.334;21.936;2023-06-26T00:17:57;4.75;;;3.08;;
53835;SDS011;39737;43.334;21.936;2023-06-26T00:20:48;5.28;;;3.30;;
53835;SDS011;39737;43.334;21.936;2023-06-26T00:23:35;7.55;;;3.75;;
53835;SDS011;39737;43.334;21.936;2023-06-26T00:26:27;5.13;;;3.85;;
53835;SDS011;39737;43.334;21.936;2023-06-26T00:29:13;4.30;;;2.90;;
53835;SDS011;39737;43.334;21.936;2023-06-26T00:32:00;4.85;;;3.03;;
53835;SDS011;39737;43.334;21.936;2023-06-26T00:34:47;7.43;;;3.92;;
53835;SDS011;39737;43.334;21.936;2023-06-26T00:37:35;6.45;;;3.20;;
53835;SDS011;39737;43.334;21.936;2023-06-26T00:40:33;6.35;;;3.70;;
53835;SDS011;39737;43.334;21.936;2023-06-26T00:43:38;9.85;;;3.70;;
53835;SDS011;39737;43.334;21.936;2023-06-26T00:46:29;6.00;;;3.70;;
53835;SDS011;39737;43.334;21.936;2023-06-26T00:49:15;5.20;;;3.20;;
53835;SDS011;39737;43.334;21.936;2023-06-26T00:52:01;5.10;;;3.00;;
53835;SDS011;39737;43.334;21.936;2023-06-26T00:54:54;6.75;;;2.80;;
53835;SDS011;39737;43.334;21.936;2023-06-26T00:57:40;4.35;;;2.75;;
53835;SDS011;39737;43.334;21.936;2023-06-26T01:00:27;6.25;;;2.85;;
53835;SDS011;39737;43.334;21.936;2023-06-26T01:03:16;5.03;;;2.85;;
53835;SDS011;39737;43.334;21.936;2023-06-26T01:06:04;8.27;;;3.35;;
53835;SDS011;39737;43.334;21.936;2023-06-26T01:08:53;4.47;;;3.15;;
53835;SDS011;39737;43.334;21.936;2023-06-26T01:11:39;5.47;;;3.38;;
53835;SDS011;39737;43.334;21.936;2023-06-26T01:14:26;7.50;;;3.80;;
53835;SDS011;39737;43.334;21.936;2023-06-26T01:17:12;4.57;;;3.30;;
53835;SDS011;39737;43.334;21.936;2023-06-26T01:20:04;5.90;;;3.28;;
53835;SDS011;39737;43.334;21.936;2023-06-26T01:28:29;17.13;;;3.88;;
53835;SDS011;39737;43.334;21.936;2023-06-26T01:31:16;5.18;;;3.60;;
53835;SDS011;39737;43.334;21.936;2023-06-26T01:34:03;5.85;;;2.95;;
53835;SDS011;39737;43.334;21.936;2023-06-26T01:36:49;4.32;;;2.78;;
53835;SDS011;39737;43.334;21.936;2023-06-26T01:39:54;4.60;;;2.92;;
53835;SDS011;39737;43.334;21.936;2023-06-26T01:42:40;4.20;;;2.67;;
53835;SDS011;39737;43.334;21.936;2023-06-26T01:45:27;5.47;;;2.83;;
53835;SDS011;39737;43.334;21.936;2023-06-26T01:48:14;8.00;;;3.50;;
53835;SDS011;39737;43.334;21.936;2023-06-26T01:51:02;6.93;;;2.97;;
53835;SDS011;39737;43.334;21.936;2023-06-26T01:53:50;7.85;;;3.47;;
53835;SDS011;39737;43.334;21.936;2023-06-26T01:56:38;4.65;;;2.97;;
53835;SDS011;39737;43.334;21.936;2023-06-26T01:59:24;9.75;;;3.42;;
53835;SDS011;39737;43.334;21.936;2023-06-26T02:02:12;6.13;;;3.30;;
53835;SDS011;39737;43.334;21.936;2023-06-26T02:05:17;8.57;;;3.63;;
53835;SDS011;39737;43.334;21.936;2023-06-26T02:08:13;7.05;;;3.20;;
53835;SDS011;39737;43.334;21.936;2023-06-26T02:11:06;6.97;;;3.58;;
53835;SDS011;39737;43.334;21.936;2023-06-26T02:14:32;7.20;;;3.85;;
53835;SDS011;39737;43.334;21.936;2023-06-26T02:17:45;6.80;;;3.70;;
53835;SDS011;39737;43.334;21.936;2023-06-26T02:20:41;8.50;;;3.70;;
53835;SDS011;39737;43.334;21.936;2023-06-26T02:23:30;6.95;;;3.78;;
53835;SDS011;39737;43.334;21.936;2023-06-26T02:26:17;10.70;;;4.32;;
53835;SDS011;39737;43.334;21.936;2023-06-26T02:29:03;7.25;;;3.33;;
53835;SDS011;39737;43.334;21.936;2023-06-26T02:31:52;6.60;;;3.90;;
53835;SDS011;39737;43.334;21.936;2023-06-26T02:37:30;6.32;;;3.28;;
53835;SDS011;39737;43.334;21.936;2023-06-26T02:40:17;8.30;;;4.60;;
53835;SDS011;39737;43.334;21.936;2023-06-26T02:43:04;8.70;;;5.57;;
53835;SDS011;39737;43.334;21.936;2023-06-26T02:45:50;8.07;;;4.28;;
53835;SDS011;39737;43.334;21.936;2023-06-26T02:48:37;7.57;;;4.30;;
53835;SDS011;39737;43.334;21.936;2023-06-26T02:51:24;7.85;;;4.00;;
53835;SDS011;39737;43.334;21.936;2023-06-26T02:54:11;8.45;;;5.28;;
53835;SDS011;39737;43.334;21.936;2023-06-26T02:56:59;14.10;;;5.32;;
53835;SDS011;39737;43.334;21.936;2023-06-26T02:59:48;13.43;;;5.57;;
53835;SDS011;39737;43.334;21.936;2023-06-26T03:02:36;7.30;;;4.40;;
53835;SDS011;39737;43.334;21.936;2023-06-26T03:05:27;7.25;;;4.78;;
53835;SDS011;39737;43.334;21.936;2023-06-26T03:08:13;12.77;;;4.05;;
53835;SDS011;39737;43.334;21.936;2023-06-26T03:11:00;11.43;;;5.07;;
53835;SDS011;39737;43.334;21.936;2023-06-26T03:13:46;9.88;;;5.07;;
53835;SDS011;39737;43.334;21.936;2023-06-26T03:16:33;8.52;;;4.50;;
53835;SDS011;39737;43.334;21.936;2023-06-26T03:19:20;5.47;;;3.15;;
53835;SDS011;39737;43.334;21.936;2023-06-26T03:22:25;8.00;;;3.88;;
53835;SDS011;39737;43.334;21.936;2023-06-26T03:25:11;7.15;;;3.60;;
53835;SDS011;39737;43.334;21.936;2023-06-26T03:27:57;8.70;;;4.20;;
53835;SDS011;39737;43.334;21.936;2023-06-26T03:30:45;9.23;;;3.65;;
53835;SDS011;39737;43.334;21.936;2023-06-26T03:33:31;12.10;;;5.03;;
53835;SDS011;39737;43.334;21.936;2023-06-26T03:36:18;7.03;;;4.07;;
53835;SDS011;39737;43.334;21.936;2023-06-26T03:39:04;6.03;;;3.65;;
53835;SDS011;39737;43.334;21.936;2023-06-26T03:41:50;8.85;;;4.22;;
53835;SDS011;39737;43.334;21.936;2023-06-26T03:44:37;9.85;;;4.93;;
53835;SDS011;39737;43.334;21.936;2023-06-26T03:47:23;9.57;;;4.65;;
53835;SDS011;39737;43.334;21.936;2023-06-26T03:50:10;9.35;;;4.60;;
53835;SDS011;39737;43.334;21.936;2023-06-26T03:52:56;6.35;;;4.10;;
53835;SDS011;39737;43.334;21.936;2023-06-26T03:55:43;4.65;;;3.95;;
53835;SDS011;39737;43.334;21.936;2023-06-26T03:58:29;9.93;;;5.95;;
53835;SDS011;39737;43.334;21.936;2023-06-26T04:01:15;7.55;;;5.18;;
53835;SDS011;39737;43.334;21.936;2023-06-26T04:04:03;9.23;;;5.05;;
53835;SDS011;39737;43.334;21.936;2023-06-26T04:06:50;8.77;;;5.43;;
53835;SDS011;39737;43.334;21.936;2023-06-26T04:09:38;13.73;;;5.65;;
53835;SDS011;39737;43.334;21.936;2023-06-26T04:12:25;13.90;;;6.82;;
53835;SDS011;39737;43.334;21.936;2023-06-26T04:15:12;10.65;;;7.07;;
53835;SDS011;39737;43.334;21.936;2023-06-26T04:17:58;15.35;;;8.00;;
53835;SDS011;39737;43.334;21.936;2023-06-26T04:21:03;11.75;;;6.32;;
53835;SDS011;39737;43.334;21.936;2023-06-26T04:23:51;24.70;;;8.23;;
53835;SDS011;39737;43.334;21.936;2023-06-26T04:26:37;11.20;;;6.18;;
53835;SDS011;39737;43.334;21.936;2023-06-26T04:29:27;14.50;;;8.07;;
53835;SDS011;39737;43.334;21.936;2023-06-26T04:32:13;11.55;;;7.97;;
53835;SDS011;39737;43.334;21.936;2023-06-26T04:34:59;17.60;;;7.53;;
53835;SDS011;39737;43.334;21.936;2023-06-26T04:37:47;13.18;;;6.63;;
53835;SDS011;39737;43.334;21.936;2023-06-26T04:40:33;17.85;;;9.00;;
53835;SDS011;39737;43.334;21.936;2023-06-26T04:43:20;14.18;;;8.15;;
53835;SDS011;39737;43.334;21.936;2023-06-26T04:46:06;13.48;;;7.03;;
53835;SDS011;39737;43.334;21.936;2023-06-26T04:48:53;15.27;;;8.43;;
53835;SDS011;39737;43.334;21.936;2023-06-26T04:51:39;10.13;;;6.50;;
53835;SDS011;39737;43.334;21.936;2023-06-26T04:54:28;14.00;;;7.95;;
53835;SDS011;39737;43.334;21.936;2023-06-26T04:57:14;15.52;;;9.23;;
53835;SDS011;39737;43.334;21.936;2023-06-26T05:00:01;12.73;;;7.63;;
53835;SDS011;39737;43.334;21.936;2023-06-26T05:02:51;16.23;;;7.72;;
53835;SDS011;39737;43.334;21.936;2023-06-26T05:05:47;14.10;;;8.30;;
53835;SDS011;39737;43.334;21.936;2023-06-26T05:08:33;12.85;;;8.73;;
53835;SDS011;39737;43.334;21.936;2023-06-26T05:11:20;15.18;;;8.98;;
53835;SDS011;39737;43.334;21.936;2023-06-26T05:14:06;17.23;;;9.38;;
53835;SDS011;39737;43.334;21.936;2023-06-26T05:16:55;14.50;;;8.75;;
53835;SDS011;39737;43.334;21.936;2023-06-26T05:19:42;12.15;;;7.95;;
53835;SDS011;39737;43.334;21.936;2023-06-26T05:22:29;12.20;;;7.03;;
53835;SDS011;39737;43.334;21.936;2023-06-26T05:25:16;9.70;;;6.75;;
53835;SDS011;39737;43.334;21.936;2023-06-26T05:28:04;17.67;;;7.22;;
53835;SDS011;39737;43.334;21.936;2023-06-26T05:30:56;13.68;;;7.35;;
53835;SDS011;39737;43.334;21.936;2023-06-26T05:33:43;11.43;;;6.45;;
53835;SDS011;39737;43.334;21.936;2023-06-26T05:36:30;10.68;;;6.38;;
53835;SDS011;39737;43.334;21.936;2023-06-26T05:39:18;15.25;;;8.50;;
53835;SDS011;39737;43.334;21.936;2023-06-26T05:42:05;22.38;;;9.73;;
53835;SDS011;39737;43.334;21.936;2023-06-26T05:44:51;20.50;;;9.93;;
53835;SDS011;39737;43.334;21.936;2023-06-26T05:47:37;14.57;;;8.93;;
53835;SDS011;39737;43.334;21.936;2023-06-26T05:50:24;18.08;;;9.05;;
53835;SDS011;39737;43.334;21.936;2023-06-26T05:53:10;23.33;;;9.07;;
53835;SDS011;39737;43.334;21.936;2023-06-26T05:55:57;20.85;;;10.10;;
53835;SDS011;39737;43.334;21.936;2023-06-26T05:58:43;15.75;;;7.90;;
53835;SDS011;39737;43.334;21.936;2023-06-26T06:01:29;13.68;;;7.38;;
53835;SDS011;39737;43.334;21.936;2023-06-26T06:04:16;13.63;;;7.55;;
53835;SDS011;39737;43.334;21.936;2023-06-26T06:07:02;14.20;;;8.32;;
53835;SDS011;39737;43.334;21.936;2023-06-26T06:09:49;13.45;;;7.85;;
53835;SDS011;39737;43.334;21.936;2023-06-26T06:12:35;11.95;;;7.18;;
53835;SDS011;39737;43.334;21.936;2023-06-26T06:15:21;17.17;;;8.93;;
53835;SDS011;39737;43.334;21.936;2023-06-26T06:18:07;14.70;;;8.48;;
53835;SDS011;39737;43.334;21.936;2023-06-26T06:20:54;14.52;;;7.20;;
53835;SDS011;39737;43.334;21.936;2023-06-26T06:23:40;15.70;;;8.50;;
53835;SDS011;39737;43.334;21.936;2023-06-26T06:26:27;18.15;;;9.25;;
53835;SDS011;39737;43.334;21.936;2023-06-26T06:29:13;15.27;;;8.20;;
53835;SDS011;39737;43.334;21.936;2023-06-26T06:31:59;17.95;;;8.68;;
53835;SDS011;39737;43.334;21.936;2023-06-26T06:34:45;11.13;;;7.18;;
53835;SDS011;39737;43.334;21.936;2023-06-26T06:37:32;19.88;;;9.07;;
53835;SDS011;39737;43.334;21.936;2023-06-26T06:40:18;11.50;;;7.07;;
53835;SDS011;39737;43.334;21.936;2023-06-26T06:43:05;12.90;;;7.82;;
53835;SDS011;39737;43.334;21.936;2023-06-26T06:45:51;15.30;;;7.45;;
53835;SDS011;39737;43.334;21.936;2023-06-26T06:48:38;14.85;;;8.05;;
53835;SDS011;39737;43.334;21.936;2023-06-26T06:51:24;14.93;;;7.65;;
53835;SDS011;39737;43.334;21.936;2023-06-26T06:54:10;11.02;;;7.07;;
53835;SDS011;39737;43.334;21.936;2023-06-26T06:56:56;13.48;;;7.57;;
53835;SDS011;39737;43.334;21.936;2023-06-26T06:59:43;14.40;;;7.30;;
53835;SDS011;39737;43.334;21.936;2023-06-26T07:02:29;11.63;;;6.47;;
53835;SDS011;39737;43.334;21.936;2023-06-26T07:05:16;10.00;;;6.38;;
53835;SDS011;39737;43.334;21.936;2023-06-26T07:08:03;9.30;;;6.03;;
53835;SDS011;39737;43.334;21.936;2023-06-26T07:10:49;12.98;;;6.35;;
53835;SDS011;39737;43.334;21.936;2023-06-26T07:13:35;17.52;;;6.57;;
53835;SDS011;39737;43.334;21.936;2023-06-26T07:16:21;9.07;;;6.10;;
53835;SDS011;39737;43.334;21.936;2023-06-26T07:19:08;10.88;;;6.18;;
53835;SDS011;39737;43.334;21.936;2023-06-26T07:21:54;12.15;;;5.82;;
53835;SDS011;39737;43.334;21.936;2023-06-26T07:24:41;10.75;;;6.93;;
53835;SDS011;39737;43.334;21.936;2023-06-26T07:27:27;12.23;;;5.97;;
53835;SDS011;39737;43.334;21.936;2023-06-26T07:30:14;15.35;;;5.97;;
53835;SDS011;39737;43.334;21.936;2023-06-26T07:33:00;10.77;;;5.68;;
53835;SDS011;39737;43.334;21.936;2023-06-26T07:35:46;8.40;;;5.70;;
53835;SDS011;39737;43.334;21.936;2023-06-26T07:38:32;7.43;;;5.13;;
53835;SDS011;39737;43.334;21.936;2023-06-26T07:41:18;9.40;;;5.75;;
53835;SDS011;39737;43.334;21.936;2023-06-26T07:44:04;8.80;;;5.55;;
53835;SDS011;39737;43.334;21.936;2023-06-26T07:46:51;10.15;;;6.15;;
53835;SDS011;39737;43.334;21.936;2023-06-26T07:49:37;11.75;;;6.57;;
53835;SDS011;39737;43.334;21.936;2023-06-26T07:52:24;9.10;;;6.43;;
53835;SDS011;39737;43.334;21.936;2023-06-26T07:55:13;11.68;;;5.53;;
53835;SDS011;39737;43.334;21.936;2023-06-26T07:57:59;7.30;;;5.32;;
53835;SDS011;39737;43.334;21.936;2023-06-26T08:00:47;8.82;;;5.28;;
53835;SDS011;39737;43.334;21.936;2023-06-26T08:03:33;9.10;;;4.72;;
53835;SDS011;39737;43.334;21.936;2023-06-26T08:06:21;7.32;;;4.43;;
53835;SDS011;39737;43.334;21.936;2023-06-26T08:09:07;6.63;;;4.18;;
53835;SDS011;39737;43.334;21.936;2023-06-26T08:11:56;10.80;;;4.75;;
53835;SDS011;39737;43.334;21.936;2023-06-26T08:15:08;6.35;;;4.00;;
53835;SDS011;39737;43.334;21.936;2023-06-26T08:17:55;4.78;;;3.38;;
53835;SDS011;39737;43.334;21.936;2023-06-26T08:20:41;5.10;;;3.85;;
53835;SDS011;39737;43.334;21.936;2023-06-26T08:23:28;6.65;;;3.78;;
53835;SDS011;39737;43.334;21.936;2023-06-26T08:26:15;4.63;;;3.10;;
53835;SDS011;39737;43.334;21.936;2023-06-26T08:29:01;7.93;;;3.65;;
53835;SDS011;39737;43.334;21.936;2023-06-26T08:31:56;5.75;;;3.47;;
53835;SDS011;39737;43.334;21.936;2023-06-26T08:34:42;8.68;;;4.00;;
53835;SDS011;39737;43.334;21.936;2023-06-26T08:37:29;5.45;;;3.03;;
53835;SDS011;39737;43.334;21.936;2023-06-26T08:40:21;7.65;;;3.33;;
53835;SDS011;39737;43.334;21.936;2023-06-26T08:43:08;5.68;;;3.53;;
53835;SDS011;39737;43.334;21.936;2023-06-26T08:45:56;9.55;;;4.05;;
53835;SDS011;39737;43.334;21.936;2023-06-26T08:48:48;8.93;;;3.70;;
53835;SDS011;39737;43.334;21.936;2023-06-26T08:51:37;7.18;;;3.22;;
53835;SDS011;39737;43.334;21.936;2023-06-26T08:54:27;5.60;;;4.15;;
53835;SDS011;39737;43.334;21.936;2023-06-26T08:57:16;5.65;;;3.38;;
53835;SDS011;39737;43.334;21.936;2023-06-26T09:00:06;6.13;;;3.88;;
53835;SDS011;39737;43.334;21.936;2023-06-26T09:02:55;8.48;;;4.03;;
53835;SDS011;39737;43.334;21.936;2023-06-26T09:05:41;7.15;;;4.05;;
53835;SDS011;39737;43.334;21.936;2023-06-26T09:08:28;8.55;;;3.83;;
53835;SDS011;39737;43.334;21.936;2023-06-26T09:11:14;9.20;;;3.60;;
53835;SDS011;39737;43.334;21.936;2023-06-26T09:14:04;4.35;;;2.90;;
53835;SDS011;39737;43.334;21.936;2023-06-26T09:16:57;6.00;;;2.67;;
53835;SDS011;39737;43.334;21.936;2023-06-26T09:37:02;8.57;;;3.15;;
53835;SDS011;39737;43.334;21.936;2023-06-26T09:40:21;4.50;;;2.80;;
53835;SDS011;39737;43.334;21.936;2023-06-26T09:48:03;3.83;;;2.72;;
53835;SDS011;39737;43.334;21.936;2023-06-26T09:51:40;5.80;;;3.25;;
53835;SDS011;39737;43.334;21.936;2023-06-26T09:54:26;7.40;;;2.72;;
53835;SDS011;39737;43.334;21.936;2023-06-26T09:57:18;6.72;;;3.03;;
53835;SDS011;39737;43.334;21.936;2023-06-26T10:00:08;8.82;;;3.40;;
53835;SDS011;39737;43.334;21.936;2023-06-26T10:02:59;6.18;;;2.97;;
53835;SDS011;39737;43.334;21.936;2023-06-26T10:05:46;7.68;;;2.92;;
53835;SDS011;39737;43.334;21.936;2023-06-26T10:08:34;5.13;;;2.60;;
53835;SDS011;39737;43.334;21.936;2023-06-26T10:11:21;4.80;;;2.80;;
53835;SDS011;39737;43.334;21.936;2023-06-26T10:14:07;4.03;;;2.60;;
53835;SDS011;39737;43.334;21.936;2023-06-26T10:17:07;8.10;;;2.70;;
53835;SDS011;39737;43.334;21.936;2023-06-26T10:19:54;5.05;;;2.83;;
53835;SDS011;39737;43.334;21.936;2023-06-26T10:22:46;6.22;;;2.80;;
53835;SDS011;39737;43.334;21.936;2023-06-26T10:25:39;5.50;;;2.72;;
53835;SDS011;39737;43.334;21.936;2023-06-26T10:28:28;5.75;;;2.60;;
53835;SDS011;39737;43.334;21.936;2023-06-26T10:31:15;5.85;;;2.33;;
53835;SDS011;39737;43.334;21.936;2023-06-26T10:34:12;4.95;;;2.58;;
53835;SDS011;39737;43.334;21.936;2023-06-26T10:37:03;5.15;;;3.03;;
53835;SDS011;39737;43.334;21.936;2023-06-26T10:39:51;3.77;;;2.37;;
53835;SDS011;39737;43.334;21.936;2023-06-26T10:42:42;5.43;;;2.83;;
53835;SDS011;39737;43.334;21.936;2023-06-26T10:45:32;4.95;;;3.00;;
53835;SDS011;39737;43.334;21.936;2023-06-26T10:48:19;5.97;;;2.60;;
53835;SDS011;39737;43.334;21.936;2023-06-26T10:51:15;3.63;;;2.42;;
53835;SDS011;39737;43.334;21.936;2023-06-26T10:54:02;3.42;;;2.30;;
53835;SDS011;39737;43.334;21.936;2023-06-26T10:56:49;3.55;;;2.45;;
53835;SDS011;39737;43.334;21.936;2023-06-26T10:59:38;4.05;;;2.70;;
53835;SDS011;39737;43.334;21.936;2023-06-26T11:02:26;6.88;;;1.73;;
53835;SDS011;39737;43.334;21.936;2023-06-26T11:05:16;4.00;;;2.25;;
53835;SDS011;39737;43.334;21.936;2023-06-26T11:08:09;4.68;;;2.42;;
53835;SDS011;39737;43.334;21.936;2023-06-26T11:10:59;3.50;;;2.47;;
53835;SDS011;39737;43.334;21.936;2023-06-26T11:13:46;3.53;;;2.10;;
53835;SDS011;39737;43.334;21.936;2023-06-26T11:16:33;4.93;;;2.20;;
53835;SDS011;39737;43.334;21.936;2023-06-26T11:19:20;7.13;;;2.70;;
53835;SDS011;39737;43.334;21.936;2023-06-26T11:22:06;3.45;;;1.88;;
53835;SDS011;39737;43.334;21.936;2023-06-26T11:24:53;4.28;;;2.50;;
53835;SDS011;39737;43.334;21.936;2023-06-26T11:27:46;7.82;;;2.50;;
53835;SDS011;39737;43.334;21.936;2023-06-26T11:30:33;3.70;;;2.17;;
53835;SDS011;39737;43.334;21.936;2023-06-26T11:37:58;8.50;;;2.85;;
53835;SDS011;39737;43.334;21.936;2023-06-26T11:40:54;4.13;;;2.15;;
53835;SDS011;39737;43.334;21.936;2023-06-26T11:43:45;4.50;;;1.92;;
53835;SDS011;39737;43.334;21.936;2023-06-26T11:46:32;3.10;;;2.28;;
53835;SDS011;39737;43.334;21.936;2023-06-26T11:49:19;4.53;;;2.42;;
53835;SDS011;39737;43.334;21.936;2023-06-26T11:52:13;5.10;;;2.67;;
53835;SDS011;39737;43.334;21.936;2023-06-26T11:55:17;7.10;;;2.63;;
53835;SDS011;39737;43.334;21.936;2023-06-26T11:58:05;4.18;;;2.17;;
53835;SDS011;39737;43.334;21.936;2023-06-26T12:05:06;3.92;;;2.30;;
53835;SDS011;39737;43.334;21.936;2023-06-26T12:07:56;4.35;;;2.60;;
53835;SDS011;39737;43.334;21.936;2023-06-26T12:10:53;4.18;;;2.28;;
53835;SDS011;39737;43.334;21.936;2023-06-26T12:13:49;2.35;;;1.67;;
53835;SDS011;39737;43.334;21.936;2023-06-26T12:21:45;3.50;;;2.05;;
53835;SDS011;39737;43.334;21.936;2023-06-26T12:25:43;5.03;;;2.08;;
53835;SDS011;39737;43.334;21.936;2023-06-26T12:42:48;3.22;;;2.33;;
53835;SDS011;39737;43.334;21.936;2023-06-26T12:46:43;4.53;;;2.28;;
53835;SDS011;39737;43.334;21.936;2023-06-26T12:53:07;4.80;;;1.92;;
53835;SDS011;39737;43.334;21.936;2023-06-26T12:56:02;4.53;;;1.70;;
53835;SDS011;39737;43.334;21.936;2023-06-26T12:59:19;6.78;;;2.08;;
53835;SDS011;39737;43.334;21.936;2023-06-26T13:06:36;2.97;;;2.05;;
53835;SDS011;39737;43.334;21.936;2023-06-26T13:09:25;6.55;;;1.90;;
53835;SDS011;39737;43.334;21.936;2023-06-26T13:15:45;3.08;;;1.90;;
53835;SDS011;39737;43.334;21.936;2023-06-26T13:18:32;3.55;;;1.85;;
53835;SDS011;39737;43.334;21.936;2023-06-26T13:21:19;5.63;;;2.45;;
53835;SDS011;39737;43.334;21.936;2023-06-26T13:30:06;5.30;;;2.88;;
53835;SDS011;39737;43.334;21.936;2023-06-26T13:33:19;5.65;;;2.40;;
53835;SDS011;39737;43.334;21.936;2023-06-26T13:36:05;6.93;;;1.98;;
53835;SDS011;39737;43.334;21.936;2023-06-26T13:38:52;3.78;;;2.25;;
53835;SDS011;39737;43.334;21.936;2023-06-26T13:41:59;4.45;;;2.33;;
53835;SDS011;39737;43.334;21.936;2023-06-26T13:44:47;3.10;;;2.03;;
53835;SDS011;39737;43.334;21.936;2023-06-26T13:47:58;3.80;;;2.17;;
53835;SDS011;39737;43.334;21.936;2023-06-26T13:50:53;3.67;;;2.15;;
53835;SDS011;39737;43.334;21.936;2023-06-26T13:53:48;4.57;;;2.38;;
53835;SDS011;39737;43.334;21.936;2023-06-26T13:56:35;9.50;;;2.72;;
53835;SDS011;39737;43.334;21.936;2023-06-26T13:59:31;2.90;;;2.08;;
53835;SDS011;39737;43.334;21.936;2023-06-26T14:02:18;2.80;;;2.30;;
53835;SDS011;39737;43.334;21.936;2023-06-26T14:05:06;2.88;;;2.15;;
53835;SDS011;39737;43.334;21.936;2023-06-26T14:07:59;3.17;;;2.60;;
53835;SDS011;39737;43.334;21.936;2023-06-26T14:10:54;4.03;;;2.58;;
53835;SDS011;39737;43.334;21.936;2023-06-26T14:13:41;5.32;;;2.35;;
53835;SDS011;39737;43.334;21.936;2023-06-26T14:16:35;5.68;;;2.63;;
53835;SDS011;39737;43.334;21.936;2023-06-26T14:19:22;4.10;;;3.05;;
53835;SDS011;39737;43.334;21.936;2023-06-26T14:22:08;6.95;;;2.47;;
53835;SDS011;39737;43.334;21.936;2023-06-26T14:24:57;4.78;;;2.72;;
53835;SDS011;39737;43.334;21.936;2023-06-26T14:27:51;5.82;;;2.42;;
53835;SDS011;39737;43.334;21.936;2023-06-26T14:30:38;5.75;;;2.95;;
53835;SDS011;39737;43.334;21.936;2023-06-26T14:33:34;2.92;;;1.90;;
53835;SDS011;39737;43.334;21.936;2023-06-26T14:42:09;4.32;;;2.63;;
53835;SDS011;39737;43.334;21.936;2023-06-26T14:44:56;3.78;;;2.30;;
53835;SDS011;39737;43.334;21.936;2023-06-26T14:51:07;5.47;;;2.88;;
53835;SDS011;39737;43.334;21.936;2023-06-26T14:54:01;5.07;;;2.63;;
53835;SDS011;39737;43.334;21.936;2023-06-26T14:57:32;2.90;;;2.10;;
53835;SDS011;39737;43.334;21.936;2023-06-26T15:00:56;3.65;;;2.35;;
53835;SDS011;39737;43.334;21.936;2023-06-26T15:08:14;5.00;;;2.45;;
53835;SDS011;39737;43.334;21.936;2023-06-26T15:11:04;2.88;;;2.15;;
53835;SDS011;39737;43.334;21.936;2023-06-26T15:26:04;4.45;;;2.60;;
53835;SDS011;39737;43.334;21.936;2023-06-26T15:28:52;6.55;;;2.53;;
53835;SDS011;39737;43.334;21.936;2023-06-26T15:31:44;4.88;;;2.28;;
53835;SDS011;39737;43.334;21.936;2023-06-26T15:34:48;7.65;;;2.55;;
53835;SDS011;39737;43.334;21.936;2023-06-26T15:37:35;5.53;;;2.33;;
53835;SDS011;39737;43.334;21.936;2023-06-26T15:40:21;4.13;;;2.22;;
53835;SDS011;39737;43.334;21.936;2023-06-26T15:43:07;4.07;;;2.63;;
53835;SDS011;39737;43.334;21.936;2023-06-26T15:45:53;6.15;;;2.67;;
53835;SDS011;39737;43.334;21.936;2023-06-26T15:48:50;3.17;;;2.10;;
53835;SDS011;39737;43.334;21.936;2023-06-26T15:51:36;5.75;;;2.92;;
53835;SDS011;39737;43.334;21.936;2023-06-26T15:54:25;7.80;;;2.58;;
53835;SDS011;39737;43.334;21.936;2023-06-26T15:57:36;4.57;;;2.47;;
53835;SDS011;39737;43.334;21.936;2023-06-26T16:00:27;5.85;;;2.25;;
53835;SDS011;39737;43.334;21.936;2023-06-26T16:03:17;4.22;;;2.38;;
53835;SDS011;39737;43.334;21.936;2023-06-26T16:06:10;4.00;;;2.67;;
53835;SDS011;39737;43.334;21.936;2023-06-26T16:08:58;5.57;;;2.45;;
53835;SDS011;39737;43.334;21.936;2023-06-26T16:12:40;7.30;;;3.28;;
53835;SDS011;39737;43.334;21.936;2023-06-26T16:15:31;4.50;;;2.72;;
53835;SDS011;39737;43.334;21.936;2023-06-26T16:18:19;4.60;;;2.88;;
53835;SDS011;39737;43.334;21.936;2023-06-26T16:21:05;5.80;;;2.88;;
53835;SDS011;39737;43.334;21.936;2023-06-26T16:24:04;5.40;;;2.78;;
53835;SDS011;39737;43.334;21.936;2023-06-26T16:27:30;3.33;;;2.22;;
53835;SDS011;39737;43.334;21.936;2023-06-26T16:30:16;4.75;;;2.22;;
53835;SDS011;39737;43.334;21.936;2023-06-26T16:33:03;3.65;;;2.25;;
53835;SDS011;39737;43.334;21.936;2023-06-26T16:35:50;3.85;;;2.85;;
53835;SDS011;39737;43.334;21.936;2023-06-26T16:38:36;3.55;;;2.17;;
53835;SDS011;39737;43.334;21.936;2023-06-26T16:42:11;3.63;;;2.20;;
53835;SDS011;39737;43.334;21.936;2023-06-26T16:44:59;6.05;;;2.60;;
53835;SDS011;39737;43.334;21.936;2023-06-26T16:47:55;3.22;;;2.17;;
53835;SDS011;39737;43.334;21.936;2023-06-26T16:51:05;3.78;;;2.58;;
53835;SDS011;39737;43.334;21.936;2023-06-26T16:53:51;2.95;;;2.20;;
53835;SDS011;39737;43.334;21.936;2023-06-26T16:56:37;8.02;;;3.65;;
53835;SDS011;39737;43.334;21.936;2023-06-26T16:59:24;9.40;;;3.17;;
53835;SDS011;39737;43.334;21.936;2023-06-26T17:02:10;4.28;;;2.63;;
53835;SDS011;39737;43.334;21.936;2023-06-26T17:04:58;4.05;;;2.60;;
53835;SDS011;39737;43.334;21.936;2023-06-26T17:07:45;3.92;;;2.58;;
53835;SDS011;39737;43.334;21.936;2023-06-26T17:10:31;7.47;;;3.17;;
53835;SDS011;39737;43.334;21.936;2023-06-26T17:13:17;2.90;;;2.05;;
53835;SDS011;39737;43.334;21.936;2023-06-26T17:16:03;9.20;;;3.15;;
53835;SDS011;39737;43.334;21.936;2023-06-26T17:18:50;5.07;;;3.05;;
53835;SDS011;39737;43.334;21.936;2023-06-26T17:21:36;4.10;;;2.40;;
53835;SDS011;39737;43.334;21.936;2023-06-26T17:24:23;5.00;;;2.60;;
53835;SDS011;39737;43.334;21.936;2023-06-26T17:27:11;7.03;;;2.42;;
53835;SDS011;39737;43.334;21.936;2023-06-26T17:29:58;3.45;;;2.47;;
53835;SDS011;39737;43.334;21.936;2023-06-26T17:32:44;3.55;;;2.30;;
53835;SDS011;39737;43.334;21.936;2023-06-26T17:35:31;8.90;;;3.30;;
53835;SDS011;39737;43.334;21.936;2023-06-26T17:38:19;3.20;;;2.20;;
53835;SDS011;39737;43.334;21.936;2023-06-26T17:41:05;8.75;;;3.10;;
53835;SDS011;39737;43.334;21.936;2023-06-26T17:43:52;7.15;;;2.85;;
53835;SDS011;39737;43.334;21.936;2023-06-26T17:46:38;4.00;;;2.67;;
53835;SDS011;39737;43.334;21.936;2023-06-26T17:49:25;3.58;;;2.55;;
53835;SDS011;39737;43.334;21.936;2023-06-26T17:52:11;7.05;;;2.95;;
53835;SDS011;39737;43.334;21.936;2023-06-26T17:54:58;6.82;;;3.00;;
53835;SDS011;39737;43.334;21.936;2023-06-26T17:57:47;5.38;;;2.67;;
53835;SDS011;39737;43.334;21.936;2023-06-26T18:00:34;4.35;;;2.65;;
53835;SDS011;39737;43.334;21.936;2023-06-26T18:03:20;9.98;;;2.90;;
53835;SDS011;39737;43.334;21.936;2023-06-26T18:06:25;5.53;;;2.40;;
53835;SDS011;39737;43.334;21.936;2023-06-26T18:09:13;3.92;;;2.25;;
53835;SDS011;39737;43.334;21.936;2023-06-26T18:12:00;4.32;;;1.95;;
53835;SDS011;39737;43.334;21.936;2023-06-26T18:14:46;7.43;;;2.78;;
53835;SDS011;39737;43.334;21.936;2023-06-26T18:17:33;3.97;;;2.53;;
53835;SDS011;39737;43.334;21.936;2023-06-26T18:20:36;6.13;;;2.80;;
53835;SDS011;39737;43.334;21.936;2023-06-26T18:23:29;7.18;;;3.80;;
53835;SDS011;39737;43.334;21.936;2023-06-26T18:26:15;5.68;;;2.90;;
53835;SDS011;39737;43.334;21.936;2023-06-26T18:29:24;4.32;;;2.78;;